sensor_id;sensor_type;location;lat;lon;timestamp;pressure;altitude;pressure_sealevel;temperature;humidity
38612;BME280;24368;52.156;20.788;2023-03-03T00:03:11;100858.10;;;-1.71;100.00
38612;BME280;24368;52.156;20.788;2023-03-03T00:08:17;100850.61;;;-1.70;100.00
38612;BME280;24368;52.156;20.788;2023-03-03T00:13:24;100846.35;;;-1.67;100.00
38612;BME280;24368;52.156;20.788;2023-03-03T00:18:33;100839.54;;;-1.69;100.00
38612;BME280;24368;52.156;20.788;2023-03-03T00:23:39;100835.42;;;-1.75;100.00
38612;BME280;24368;52.156;20.788;2023-03-03T00:28:46;100828.11;;;-1.90;100.00
38612;BME280;24368;52.156;20.788;2023-03-03T00:33:53;100832.02;;;-1.97;100.00
38612;BME280;24368;52.156;20.788;2023-03-03T00:44:41;100812.02;;;-1.81;100.00
38612;BME280;24368;52.156;20.788;2023-03-03T00:49:43;100803.27;;;-1.78;100.00
38612;BME280;24368;52.156;20.788;2023-03-03T00:54:45;100806.11;;;-1.80;100.00
38612;BME280;24368;52.156;20.788;2023-03-03T00:59:47;100799.79;;;-1.86;100.00
38612;BME280;24368;52.156;20.788;2023-03-03T01:04:52;100788.25;;;-1.91;100.00
38612;BME280;24368;52.156;20.788;2023-03-03T01:09:56;100783.34;;;-2.01;100.00
38612;BME280;24368;52.156;20.788;2023-03-03T01:14:58;100776.95;;;-2.05;100.00
38612;BME280;24368;52.156;20.788;2023-03-03T01:20:01;100767.91;;;-2.00;100.00
38612;BME280;24368;52.156;20.788;2023-03-03T01:25:03;100762.19;;;-1.91;100.00
38612;BME280;24368;52.156;20.788;2023-03-03T01:30:07;100758.87;;;-1.86;100.00
38612;BME280;24368;52.156;20.788;2023-03-03T01:35:09;100745.90;;;-1.85;100.00
38612;BME280;24368;52.156;20.788;2023-03-03T01:40:20;100738.30;;;-1.89;100.00
38612;BME280;24368;52.156;20.788;2023-03-03T01:45:26;100738.45;;;-2.01;100.00
38612;BME280;24368;52.156;20.788;2023-03-03T01:50:34;100734.67;;;-2.02;100.00
38612;BME280;24368;52.156;20.788;2023-03-03T01:55:41;100735.99;;;-2.08;100.00
38612;BME280;24368;52.156;20.788;2023-03-03T02:00:48;100731.42;;;-1.99;100.00
38612;BME280;24368;52.156;20.788;2023-03-03T02:05:54;100731.17;;;-2.01;100.00
38612;BME280;24368;52.156;20.788;2023-03-03T02:10:58;100728.56;;;-2.08;100.00
38612;BME280;24368;52.156;20.788;2023-03-03T02:16:00;100732.67;;;-2.15;100.00
38612;BME280;24368;52.156;20.788;2023-03-03T02:21:09;100729.08;;;-2.12;100.00
38612;BME280;24368;52.156;20.788;2023-03-03T02:26:18;100732.80;;;-2.11;100.00
38612;BME280;24368;52.156;20.788;2023-03-03T02:31:26;100731.77;;;-2.14;100.00
38612;BME280;24368;52.156;20.788;2023-03-03T02:36:31;100729.09;;;-2.30;100.00
38612;BME280;24368;52.156;20.788;2023-03-03T02:46:57;100729.25;;;-2.41;100.00
38612;BME280;24368;52.156;20.788;2023-03-03T02:52:01;100728.56;;;-2.38;100.00
38612;BME280;24368;52.156;20.788;2023-03-03T02:57:04;100725.96;;;-2.38;100.00
38612;BME280;24368;52.156;20.788;2023-03-03T03:02:06;100729.25;;;-2.34;100.00
38612;BME280;24368;52.156;20.788;2023-03-03T03:07:09;100728.44;;;-2.31;100.00
38612;BME280;24368;52.156;20.788;2023-03-03T03:12:12;100723.85;;;-2.36;100.00
38612;BME280;24368;52.156;20.788;2023-03-03T03:17:13;100720.37;;;-2.40;100.00
38612;BME280;24368;52.156;20.788;2023-03-03T03:22:15;100722.48;;;-2.49;100.00
38612;BME280;24368;52.156;20.788;2023-03-03T03:27:17;100718.55;;;-2.58;100.00
38612;BME280;24368;52.156;20.788;2023-03-03T03:32:19;100716.64;;;-2.54;100.00
38612;BME280;24368;52.156;20.788;2023-03-03T03:37:21;100713.16;;;-2.49;100.00
38612;BME280;24368;52.156;20.788;2023-03-03T03:42:23;100708.67;;;-2.53;100.00
38612;BME280;24368;52.156;20.788;2023-03-03T03:47:25;100711.70;;;-2.60;100.00
38612;BME280;24368;52.156;20.788;2023-03-03T03:52:26;100712.18;;;-2.63;100.00
38612;BME280;24368;52.156;20.788;2023-03-03T03:57:28;100715.45;;;-2.72;100.00
38612;BME280;24368;52.156;20.788;2023-03-03T04:02:30;100705.78;;;-2.67;100.00
38612;BME280;24368;52.156;20.788;2023-03-03T04:07:32;100694.60;;;-2.68;100.00
38612;BME280;24368;52.156;20.788;2023-03-03T04:12:35;100689.30;;;-2.60;100.00
38612;BME280;24368;52.156;20.788;2023-03-03T04:17:40;100689.83;;;-2.69;100.00
38612;BME280;24368;52.156;20.788;2023-03-03T04:22:42;100688.08;;;-2.82;100.00
38612;BME280;24368;52.156;20.788;2023-03-03T04:27:44;100684.93;;;-2.89;100.00
38612;BME280;24368;52.156;20.788;2023-03-03T04:32:46;100680.23;;;-2.97;100.00
38612;BME280;24368;52.156;20.788;2023-03-03T04:37:48;100670.57;;;-2.97;100.00
38612;BME280;24368;52.156;20.788;2023-03-03T04:42:50;100673.14;;;-2.92;100.00
38612;BME280;24368;52.156;20.788;2023-03-03T04:47:52;100670.31;;;-2.90;100.00
38612;BME280;24368;52.156;20.788;2023-03-03T04:52:54;100661.05;;;-2.91;100.00
38612;BME280;24368;52.156;20.788;2023-03-03T04:57:55;100659.94;;;-2.98;100.00
38612;BME280;24368;52.156;20.788;2023-03-03T05:02:57;100660.92;;;-3.06;100.00
38612;BME280;24368;52.156;20.788;2023-03-03T05:08:00;100652.76;;;-3.04;100.00
38612;BME280;24368;52.156;20.788;2023-03-03T05:13:02;100647.45;;;-3.05;100.00
38612;BME280;24368;52.156;20.788;2023-03-03T05:18:04;100652.74;;;-2.95;100.00
38612;BME280;24368;52.156;20.788;2023-03-03T05:23:05;100665.39;;;-2.88;100.00
38612;BME280;24368;52.156;20.788;2023-03-03T05:28:09;100662.43;;;-2.83;100.00
38612;BME280;24368;52.156;20.788;2023-03-03T05:33:12;100657.44;;;-2.83;100.00
38612;BME280;24368;52.156;20.788;2023-03-03T05:38:15;100663.80;;;-2.92;100.00
38612;BME280;24368;52.156;20.788;2023-03-03T05:43:16;100661.52;;;-2.90;100.00
38612;BME280;24368;52.156;20.788;2023-03-03T05:48:18;100659.83;;;-2.91;100.00
38612;BME280;24368;52.156;20.788;2023-03-03T05:53:20;100664.28;;;-2.99;100.00
38612;BME280;24368;52.156;20.788;2023-03-03T05:58:22;100661.86;;;-2.90;100.00
38612;BME280;24368;52.156;20.788;2023-03-03T06:03:24;100662.27;;;-2.92;100.00
38612;BME280;24368;52.156;20.788;2023-03-03T06:08:25;100663.23;;;-2.86;100.00
38612;BME280;24368;52.156;20.788;2023-03-03T06:13:27;100658.38;;;-2.85;100.00
38612;BME280;24368;52.156;20.788;2023-03-03T06:18:29;100649.00;;;-2.83;100.00
38612;BME280;24368;52.156;20.788;2023-03-03T06:23:31;100656.00;;;-2.82;100.00
38612;BME280;24368;52.156;20.788;2023-03-03T06:28:32;100663.58;;;-2.90;100.00
38612;BME280;24368;52.156;20.788;2023-03-03T06:33:34;100670.27;;;-2.93;100.00
38612;BME280;24368;52.156;20.788;2023-03-03T06:38:36;100673.39;;;-2.85;100.00
38612;BME280;24368;52.156;20.788;2023-03-03T06:43:38;100664.80;;;-2.82;100.00
38612;BME280;24368;52.156;20.788;2023-03-03T06:48:40;100673.30;;;-2.75;100.00
38612;BME280;24368;52.156;20.788;2023-03-03T06:53:42;100666.34;;;-2.73;100.00
38612;BME280;24368;52.156;20.788;2023-03-03T06:58:44;100676.16;;;-2.73;100.00
38612;BME280;24368;52.156;20.788;2023-03-03T07:03:46;100664.61;;;-2.64;100.00
38612;BME280;24368;52.156;20.788;2023-03-03T07:08:48;100661.97;;;-2.50;100.00
38612;BME280;24368;52.156;20.788;2023-03-03T07:13:52;100661.02;;;-2.40;100.00
38612;BME280;24368;52.156;20.788;2023-03-03T07:18:58;100646.08;;;-2.34;100.00
38612;BME280;24368;52.156;20.788;2023-03-03T07:24:25;100639.73;;;-2.18;100.00
38612;BME280;24368;52.156;20.788;2023-03-03T07:29:28;100642.86;;;-2.14;100.00
38612;BME280;24368;52.156;20.788;2023-03-03T07:34:39;100643.60;;;-2.12;100.00
38612;BME280;24368;52.156;20.788;2023-03-03T07:39:44;100640.77;;;-2.02;100.00
38612;BME280;24368;52.156;20.788;2023-03-03T07:44:50;100651.70;;;-1.92;100.00
38612;BME280;24368;52.156;20.788;2023-03-03T07:49:59;100653.02;;;-1.82;100.00
38612;BME280;24368;52.156;20.788;2023-03-03T08:05:35;100670.59;;;-1.58;100.00
38612;BME280;24368;52.156;20.788;2023-03-03T08:10:52;100672.96;;;-1.53;100.00
38612;BME280;24368;52.156;20.788;2023-03-03T08:16:01;100668.30;;;-1.45;100.00
38612;BME280;24368;52.156;20.788;2023-03-03T08:26:09;100668.20;;;-1.43;100.00
38612;BME280;24368;52.156;20.788;2023-03-03T08:31:13;100673.36;;;-1.35;100.00
38612;BME280;24368;52.156;20.788;2023-03-03T08:36:15;100674.20;;;-1.31;100.00
38612;BME280;24368;52.156;20.788;2023-03-03T08:41:16;100681.34;;;-1.21;100.00
38612;BME280;24368;52.156;20.788;2023-03-03T08:46:18;100689.71;;;-1.22;100.00
38612;BME280;24368;52.156;20.788;2023-03-03T08:51:20;100691.77;;;-1.37;100.00
38612;BME280;24368;52.156;20.788;2023-03-03T08:56:22;100694.60;;;-1.35;100.00
38612;BME280;24368;52.156;20.788;2023-03-03T09:01:24;100709.14;;;-1.32;100.00
38612;BME280;24368;52.156;20.788;2023-03-03T09:06:26;100721.81;;;-1.40;100.00
38612;BME280;24368;52.156;20.788;2023-03-03T09:11:28;100720.32;;;-1.42;100.00
38612;BME280;24368;52.156;20.788;2023-03-03T09:16:36;100728.17;;;-1.43;100.00
38612;BME280;24368;52.156;20.788;2023-03-03T09:21:40;100725.65;;;-1.45;100.00
38612;BME280;24368;52.156;20.788;2023-03-03T09:26:45;100715.48;;;-1.42;100.00
38612;BME280;24368;52.156;20.788;2023-03-03T09:31:50;100696.94;;;-1.41;100.00
38612;BME280;24368;52.156;20.788;2023-03-03T09:36:54;100686.77;;;-1.37;100.00
38612;BME280;24368;52.156;20.788;2023-03-03T10:09:41;100662.16;;;-1.36;100.00
38612;BME280;24368;52.156;20.788;2023-03-03T10:36:07;100654.86;;;-1.24;100.00
38612;BME280;24368;52.156;20.788;2023-03-03T10:46:51;100658.55;;;-1.18;100.00
38612;BME280;24368;52.156;20.788;2023-03-03T10:52:03;100668.77;;;-1.29;100.00
38612;BME280;24368;52.156;20.788;2023-03-03T10:57:29;100676.78;;;-1.31;100.00
38612;BME280;24368;52.156;20.788;2023-03-03T11:02:50;100673.66;;;-1.31;100.00
38612;BME280;24368;52.156;20.788;2023-03-03T11:08:03;100674.31;;;-1.34;100.00
38612;BME280;24368;52.156;20.788;2023-03-03T11:13:18;100667.90;;;-1.37;100.00
38612;BME280;24368;52.156;20.788;2023-03-03T11:18:31;100671.13;;;-1.39;100.00
38612;BME280;24368;52.156;20.788;2023-03-03T11:35:22;100679.64;;;-1.25;100.00
38612;BME280;24368;52.156;20.788;2023-03-03T11:40:50;100669.20;;;-1.27;100.00
38612;BME280;24368;52.156;20.788;2023-03-03T11:46:12;100654.56;;;-1.29;100.00
38612;BME280;24368;52.156;20.788;2023-03-03T11:51:26;100651.39;;;-1.32;100.00
38612;BME280;24368;52.156;20.788;2023-03-03T11:56:41;100646.95;;;-1.29;100.00
38612;BME280;24368;52.156;20.788;2023-03-03T12:01:56;100637.06;;;-1.39;100.00
38612;BME280;24368;52.156;20.788;2023-03-03T12:12:29;100648.86;;;-1.33;100.00
38612;BME280;24368;52.156;20.788;2023-03-03T12:23:00;100656.53;;;-1.45;100.00
38612;BME280;24368;52.156;20.788;2023-03-03T12:28:16;100652.89;;;-1.45;100.00
38612;BME280;24368;52.156;20.788;2023-03-03T12:33:58;100656.16;;;-1.48;100.00
38612;BME280;24368;52.156;20.788;2023-03-03T12:44:22;100650.71;;;-1.50;100.00
38612;BME280;24368;52.156;20.788;2023-03-03T12:50:02;100651.19;;;-1.53;100.00
38612;BME280;24368;52.156;20.788;2023-03-03T13:01:05;100647.21;;;-1.49;100.00
38612;BME280;24368;52.156;20.788;2023-03-03T13:06:25;100648.12;;;-1.46;100.00
38612;BME280;24368;52.156;20.788;2023-03-03T13:16:50;100646.60;;;-1.47;100.00
38612;BME280;24368;52.156;20.788;2023-03-03T13:21:59;100645.26;;;-1.44;100.00
38612;BME280;24368;52.156;20.788;2023-03-03T13:27:12;100643.31;;;-1.47;100.00
38612;BME280;24368;52.156;20.788;2023-03-03T13:32:16;100643.79;;;-1.50;100.00
38612;BME280;24368;52.156;20.788;2023-03-03T13:37:26;100636.66;;;-1.49;100.00
38612;BME280;24368;52.156;20.788;2023-03-03T13:42:46;100636.86;;;-1.53;100.00
38612;BME280;24368;52.156;20.788;2023-03-03T13:48:02;100624.23;;;-1.49;100.00
38612;BME280;24368;52.156;20.788;2023-03-03T14:10:09;100607.14;;;-1.39;100.00
38612;BME280;24368;52.156;20.788;2023-03-03T14:15:21;100600.96;;;-1.36;100.00
38612;BME280;24368;52.156;20.788;2023-03-03T14:20:33;100605.51;;;-1.41;100.00
38612;BME280;24368;52.156;20.788;2023-03-03T14:26:10;100606.30;;;-1.39;100.00
38612;BME280;24368;52.156;20.788;2023-03-03T14:31:20;100602.34;;;-1.43;100.00
38612;BME280;24368;52.156;20.788;2023-03-03T14:36:31;100609.93;;;-1.43;100.00
38612;BME280;24368;52.156;20.788;2023-03-03T14:41:40;100610.45;;;-1.17;100.00
38612;BME280;24368;52.156;20.788;2023-03-03T14:46:42;100608.52;;;-1.24;100.00
38612;BME280;24368;52.156;20.788;2023-03-03T14:51:48;100608.84;;;-1.09;100.00
38612;BME280;24368;52.156;20.788;2023-03-03T15:07:35;100604.06;;;-1.14;100.00
38612;BME280;24368;52.156;20.788;2023-03-03T15:12:39;100601.31;;;-1.14;100.00
38612;BME280;24368;52.156;20.788;2023-03-03T15:17:42;100606.80;;;-1.13;100.00
38612;BME280;24368;52.156;20.788;2023-03-03T15:27:55;100611.85;;;-1.21;100.00
38612;BME280;24368;52.156;20.788;2023-03-03T15:33:37;100602.00;;;-1.25;100.00
38612;BME280;24368;52.156;20.788;2023-03-03T16:05:54;100591.44;;;-1.35;100.00
38612;BME280;24368;52.156;20.788;2023-03-03T16:11:27;100591.27;;;-1.39;100.00
38612;BME280;24368;52.156;20.788;2023-03-03T16:32:49;100588.56;;;-1.44;100.00
38612;BME280;24368;52.156;20.788;2023-03-03T16:38:08;100582.55;;;-1.45;100.00
38612;BME280;24368;52.156;20.788;2023-03-03T16:54:27;100588.02;;;-1.47;100.00
38612;BME280;24368;52.156;20.788;2023-03-03T16:59:41;100581.08;;;-1.43;100.00
38612;BME280;24368;52.156;20.788;2023-03-03T17:04:53;100575.99;;;-1.34;100.00
38612;BME280;24368;52.156;20.788;2023-03-03T17:10:19;100585.93;;;-1.29;100.00
38612;BME280;24368;52.156;20.788;2023-03-03T17:58:28;100578.55;;;-1.48;100.00
38612;BME280;24368;52.156;20.788;2023-03-03T18:09:42;100576.06;;;-1.57;100.00
38612;BME280;24368;52.156;20.788;2023-03-03T18:25:52;100559.50;;;-1.44;100.00
38612;BME280;24368;52.156;20.788;2023-03-03T18:31:00;100553.17;;;-1.41;100.00
38612;BME280;24368;52.156;20.788;2023-03-03T18:36:34;100548.11;;;-1.36;100.00
38612;BME280;24368;52.156;20.788;2023-03-03T18:42:07;100539.52;;;-1.27;100.00
38612;BME280;24368;52.156;20.788;2023-03-03T18:47:10;100539.92;;;-1.32;100.00
38612;BME280;24368;52.156;20.788;2023-03-03T18:52:21;100547.77;;;-1.33;100.00
38612;BME280;24368;52.156;20.788;2023-03-03T18:57:23;100543.30;;;-1.33;100.00
38612;BME280;24368;52.156;20.788;2023-03-03T19:07:45;100523.47;;;-1.28;100.00
38612;BME280;24368;52.156;20.788;2023-03-03T19:23:11;100515.48;;;-1.23;100.00
38612;BME280;24368;52.156;20.788;2023-03-03T19:33:41;100509.09;;;-1.19;100.00
38612;BME280;24368;52.156;20.788;2023-03-03T19:55:42;100496.09;;;-1.15;100.00
38612;BME280;24368;52.156;20.788;2023-03-03T20:00:48;100490.73;;;-1.12;100.00
38612;BME280;24368;52.156;20.788;2023-03-03T20:16:35;100469.33;;;-1.06;100.00
38612;BME280;24368;52.156;20.788;2023-03-03T20:32:14;100442.36;;;-0.99;100.00
38612;BME280;24368;52.156;20.788;2023-03-03T20:59:03;100410.84;;;-0.91;100.00
38612;BME280;24368;52.156;20.788;2023-03-03T21:09:36;100409.02;;;-0.86;100.00
38612;BME280;24368;52.156;20.788;2023-03-03T21:14:39;100398.09;;;-0.86;100.00
38612;BME280;24368;52.156;20.788;2023-03-03T21:19:41;100391.54;;;-0.86;100.00
38612;BME280;24368;52.156;20.788;2023-03-03T21:24:53;100373.04;;;-0.86;100.00
38612;BME280;24368;52.156;20.788;2023-03-03T21:35:18;100368.51;;;-0.82;100.00
38612;BME280;24368;52.156;20.788;2023-03-03T21:40:24;100357.05;;;-0.82;100.00
38612;BME280;24368;52.156;20.788;2023-03-03T21:45:27;100356.07;;;-0.80;100.00
38612;BME280;24368;52.156;20.788;2023-03-03T21:50:30;100346.70;;;-0.79;100.00
38612;BME280;24368;52.156;20.788;2023-03-03T21:55:33;100350.04;;;-0.77;100.00
38612;BME280;24368;52.156;20.788;2023-03-03T22:00:35;100345.95;;;-0.81;100.00
38612;BME280;24368;52.156;20.788;2023-03-03T22:05:37;100339.66;;;-0.74;100.00
38612;BME280;24368;52.156;20.788;2023-03-03T22:10:38;100335.04;;;-0.71;100.00
38612;BME280;24368;52.156;20.788;2023-03-03T22:15:40;100327.35;;;-0.73;100.00
38612;BME280;24368;52.156;20.788;2023-03-03T22:20:42;100322.96;;;-0.75;100.00
38612;BME280;24368;52.156;20.788;2023-03-03T22:25:44;100316.05;;;-0.72;100.00
38612;BME280;24368;52.156;20.788;2023-03-03T22:30:46;100312.08;;;-0.68;100.00
38612;BME280;24368;52.156;20.788;2023-03-03T22:35:48;100296.94;;;-0.70;100.00
38612;BME280;24368;52.156;20.788;2023-03-03T22:40:51;100287.31;;;-0.68;100.00
38612;BME280;24368;52.156;20.788;2023-03-03T22:45:53;100276.88;;;-0.67;100.00
38612;BME280;24368;52.156;20.788;2023-03-03T22:50:55;100273.98;;;-0.62;100.00
38612;BME280;24368;52.156;20.788;2023-03-03T22:55:57;100269.70;;;-0.63;100.00
38612;BME280;24368;52.156;20.788;2023-03-03T23:00:59;100260.13;;;-0.61;100.00
38612;BME280;24368;52.156;20.788;2023-03-03T23:06:01;100249.22;;;-0.61;100.00
38612;BME280;24368;52.156;20.788;2023-03-03T23:11:04;100247.88;;;-0.59;100.00
38612;BME280;24368;52.156;20.788;2023-03-03T23:16:06;100236.45;;;-0.56;100.00
38612;BME280;24368;52.156;20.788;2023-03-03T23:21:08;100233.95;;;-0.58;100.00
38612;BME280;24368;52.156;20.788;2023-03-03T23:26:09;100228.48;;;-0.59;100.00
38612;BME280;24368;52.156;20.788;2023-03-03T23:31:11;100224.43;;;-0.58;100.00
38612;BME280;24368;52.156;20.788;2023-03-03T23:36:13;100223.45;;;-0.58;100.00
38612;BME280;24368;52.156;20.788;2023-03-03T23:41:15;100213.15;;;-0.57;100.00
38612;BME280;24368;52.156;20.788;2023-03-03T23:46:17;100209.73;;;-0.55;100.00
38612;BME280;24368;52.156;20.788;2023-03-03T23:51:19;100194.50;;;-0.49;100.00
38612;BME280;24368;52.156;20.788;2023-03-03T23:56:20;100179.90;;;-0.51;100.00
